Time;durP1;ratioP1;P1;durP2;ratioP2;P2;SDS_P1;SDS_P2;PMS_P1;PMS_P2;Temp;Humidity;BMP_temperature;BMP_pressure;BME280_temperature;BME280_humidity;BME280_pressure;Samples;Min_cycle;Max_cycle;Signal;HPM_P1;HPM_P2
2022/06/05 00:01:58;;;;;;;63.47;6.73;;;;;;;;;;5092480;28;20480;-73
2022/06/05 00:04:33;;;;;;;61.10;5.87;;;;;;;;;;5092440;28;20537;-74
2022/06/05 00:07:05;;;;;;;63.37;7.07;;;;;;;;;;5092172;28;20449;-73
2022/06/05 00:09:35;;;;;;;63.50;5.80;;;;;;;;;;5092074;28;20460;-74
2022/06/05 00:12:06;;;;;;;62.20;6.40;;;;;;;;;;5092205;28;20539;-74
2022/06/05 00:14:33;;;;;;;62.23;5.93;;;;;;;;;;5091948;28;20536;-74
2022/06/05 00:17:01;;;;;;;61.63;5.90;;;;;;;;;;5092046;28;20996;-74
2022/06/05 00:19:31;;;;;;;62.60;6.17;;;;;;;;;;5091276;28;20481;-74
2022/06/05 00:21:58;;;;;;;66.87;7.50;;;;;;;;;;5092196;28;20477;-73
2022/06/05 00:24:25;;;;;;;61.67;5.97;;;;;;;;;;5092102;28;20540;-73
2022/06/05 00:26:55;;;;;;;62.40;6.10;;;;;;;;;;5092109;28;20446;-74
2022/06/05 00:29:39;;;;;;;62.17;6.60;;;;;;;;;;5091435;28;20479;-75
2022/06/05 00:32:11;;;;;;;63.93;6.90;;;;;;;;;;5091917;28;20474;-75
2022/06/05 00:34:39;;;;;;;63.30;5.80;;;;;;;;;;5091844;28;20450;-74
2022/06/05 00:37:13;;;;;;;63.40;6.30;;;;;;;;;;5091893;28;20537;-73
2022/06/05 00:39:45;;;;;;;63.40;6.13;;;;;;;;;;5091756;28;20568;-74
2022/06/05 00:42:13;;;;;;;63.03;6.00;;;;;;;;;;5091720;28;20469;-75
2022/06/05 00:44:42;;;;;;;62.17;6.37;;;;;;;;;;5091995;28;20451;-73
2022/06/05 00:47:13;;;;;;;62.67;5.77;;;;;;;;;;5091629;28;20446;-74
2022/06/05 00:49:42;;;;;;;61.50;5.63;;;;;;;;;;5091908;28;20529;-73
2022/06/05 00:52:11;;;;;;;62.73;6.03;;;;;;;;;;5091693;28;21053;-74
2022/06/05 00:54:39;;;;;;;62.37;6.13;;;;;;;;;;5091659;28;20495;-75
2022/06/05 00:57:08;;;;;;;67.17;6.87;;;;;;;;;;5091521;28;20954;-72
2022/06/05 00:59:35;;;;;;;64.27;7.53;;;;;;;;;;5091784;28;20481;-73
2022/06/05 01:02:02;;;;;;;61.83;6.30;;;;;;;;;;5091544;28;20484;-72
2022/06/05 01:04:32;;;;;;;64.40;6.80;;;;;;;;;;5091768;28;20540;-72
2022/06/05 01:06:59;;;;;;;63.60;6.30;;;;;;;;;;5098001;28;20489;-72
2022/06/05 01:09:27;;;;;;;62.20;6.20;;;;;;;;;;5090848;28;20441;-72
2022/06/05 01:12:00;;;;;;;61.47;6.03;;;;;;;;;;5091536;28;20475;-73
2022/06/05 01:14:32;;;;;;;62.80;6.60;;;;;;;;;;5091738;28;20492;-73
2022/06/05 01:17:01;;;;;;;62.73;6.33;;;;;;;;;;5091615;28;20450;-73
2022/06/05 01:19:37;;;;;;;66.73;6.53;;;;;;;;;;5090797;28;20568;-73
2022/06/05 01:22:23;;;;;;;62.00;6.20;;;;;;;;;;5091611;28;20473;-73
2022/06/05 01:25:10;;;;;;;63.63;6.70;;;;;;;;;;5092348;28;20532;-73
2022/06/05 01:27:40;;;;;;;62.70;6.10;;;;;;;;;;5094652;28;20896;-73
2022/06/05 01:30:10;;;;;;;61.93;6.47;;;;;;;;;;5095192;28;20445;-75
2022/06/05 01:32:40;;;;;;;61.97;5.63;;;;;;;;;;5095014;28;20480;-74
2022/06/05 01:35:14;;;;;;;61.67;5.73;;;;;;;;;;5095379;28;20450;-73
2022/06/05 01:37:46;;;;;;;63.47;6.37;;;;;;;;;;5094642;28;20483;-74
2022/06/05 01:40:15;;;;;;;63.47;7.10;;;;;;;;;;5094977;28;20491;-73
2022/06/05 01:42:46;;;;;;;61.37;5.90;;;;;;;;;;5094754;28;21006;-73
2022/06/05 01:45:17;;;;;;;61.67;5.70;;;;;;;;;;5091648;28;20459;-73
2022/06/05 01:47:46;;;;;;;63.70;6.87;;;;;;;;;;5094300;28;20445;-74
2022/06/05 01:50:16;;;;;;;61.93;5.70;;;;;;;;;;5094852;28;20517;-72
2022/06/05 01:52:46;;;;;;;62.67;6.50;;;;;;;;;;5094990;28;20469;-73
2022/06/05 01:55:16;;;;;;;63.83;7.33;;;;;;;;;;5094933;28;20449;-73
2022/06/05 01:57:45;;;;;;;63.30;7.00;;;;;;;;;;5094100;28;20875;-72
2022/06/05 02:00:13;;;;;;;61.23;5.40;;;;;;;;;;5094575;28;20485;-75
2022/06/05 02:02:45;;;;;;;63.00;6.50;;;;;;;;;;5094454;28;20577;-73
2022/06/05 02:05:15;;;;;;;62.13;5.80;;;;;;;;;;5094572;28;20973;-73
2022/06/05 02:07:45;;;;;;;63.57;6.70;;;;;;;;;;5094136;28;20803;-72
2022/06/05 02:10:16;;;;;;;62.37;6.47;;;;;;;;;;5094504;28;20538;-73
2022/06/05 02:12:45;;;;;;;62.57;6.00;;;;;;;;;;5094368;28;20845;-72
2022/06/05 02:15:12;;;;;;;61.73;5.63;;;;;;;;;;5094383;28;20532;-72
2022/06/05 02:17:39;;;;;;;61.97;5.77;;;;;;;;;;5093911;28;20445;-73
2022/06/05 02:20:07;;;;;;;63.77;7.40;;;;;;;;;;5094364;28;20569;-73
2022/06/05 02:22:37;;;;;;;62.43;5.87;;;;;;;;;;5094164;28;20476;-74
2022/06/05 02:25:04;;;;;;;64.10;7.00;;;;;;;;;;5094170;28;21028;-73
2022/06/05 02:27:32;;;;;;;61.57;5.60;;;;;;;;;;5093458;28;20974;-73
2022/06/05 02:30:01;;;;;;;61.80;6.13;;;;;;;;;;5093976;28;20441;-74
2022/06/05 02:32:39;;;;;;;62.67;6.37;;;;;;;;;;5094120;28;20472;-72
2022/06/05 02:35:12;;;;;;;61.77;5.70;;;;;;;;;;5094236;28;20464;-72
2022/06/05 02:37:44;;;;;;;61.80;5.43;;;;;;;;;;5093065;28;20449;-73
2022/06/05 02:40:16;;;;;;;63.90;6.70;;;;;;;;;;5094314;28;20485;-73
2022/06/05 02:42:46;;;;;;;62.97;7.17;;;;;;;;;;5093987;28;20820;-73
2022/06/05 02:45:22;;;;;;;68.17;6.30;;;;;;;;;;5093983;28;20446;-73
2022/06/05 02:47:52;;;;;;;61.87;6.47;;;;;;;;;;5093301;28;20442;-73
2022/06/05 02:50:21;;;;;;;62.27;6.90;;;;;;;;;;5093865;28;20544;-74
2022/06/05 02:52:50;;;;;;;63.43;7.03;;;;;;;;;;5093460;28;20566;-73
2022/06/05 02:55:18;;;;;;;62.20;6.00;;;;;;;;;;5094517;28;20450;-74
2022/06/05 02:57:45;;;;;;;65.30;7.47;;;;;;;;;;5092927;28;20461;-72
2022/06/05 03:00:14;;;;;;;63.80;6.73;;;;;;;;;;5093526;28;20489;-72
2022/06/05 03:05:28;;;;;;;65.10;7.60;;;;;;;;;;5093375;28;20422;-72
2022/06/05 03:07:55;;;;;;;68.53;7.07;;;;;;;;;;5093011;28;20876;-73
2022/06/05 03:10:22;;;;;;;65.47;6.43;;;;;;;;;;5093234;28;20447;-72
2022/06/05 03:12:49;;;;;;;64.03;6.83;;;;;;;;;;5093201;28;20841;-72
2022/06/05 03:15:17;;;;;;;63.20;6.40;;;;;;;;;;5093341;28;20459;-73
2022/06/05 03:17:46;;;;;;;61.90;5.90;;;;;;;;;;5092386;28;20980;-74
2022/06/05 03:20:14;;;;;;;61.67;6.40;;;;;;;;;;5093315;28;20488;-73
2022/06/05 03:22:41;;;;;;;63.87;7.10;;;;;;;;;;5093103;28;20812;-73
2022/06/05 03:25:09;;;;;;;64.07;7.40;;;;;;;;;;5093163;28;20469;-74
2022/06/05 03:27:36;;;;;;;62.67;6.77;;;;;;;;;;5092399;28;20443;-73
2022/06/05 03:30:03;;;;;;;61.80;6.63;;;;;;;;;;5092906;28;20438;-73
2022/06/05 03:32:31;;;;;;;61.73;6.67;;;;;;;;;;5092757;28;20909;-72
2022/06/05 03:35:00;;;;;;;68.13;6.37;;;;;;;;;;5093115;28;20453;-73
2022/06/05 03:37:27;;;;;;;62.60;6.27;;;;;;;;;;5092390;28;20541;-73
2022/06/05 03:39:54;;;;;;;62.17;6.40;;;;;;;;;;5092852;28;20441;-72
2022/06/05 03:42:21;;;;;;;62.73;6.83;;;;;;;;;;5092658;28;20469;-73
2022/06/05 03:44:48;;;;;;;62.57;6.93;;;;;;;;;;5092542;28;20934;-72
2022/06/05 03:47:15;;;;;;;61.90;6.70;;;;;;;;;;5091527;28;20443;-73
2022/06/05 03:49:42;;;;;;;63.57;6.50;;;;;;;;;;5092679;28;20478;-73
2022/06/05 03:52:12;;;;;;;60.90;6.10;;;;;;;;;;5092601;28;20570;-73
2022/06/05 03:54:39;;;;;;;62.53;6.50;;;;;;;;;;5092556;28;20869;-73
2022/06/05 03:57:07;;;;;;;65.30;7.03;;;;;;;;;;5092287;28;20542;-73
2022/06/05 03:59:35;;;;;;;62.77;6.10;;;;;;;;;;5091990;28;20443;-73
2022/06/05 04:02:02;;;;;;;62.80;6.60;;;;;;;;;;5092419;28;20535;-73
2022/06/05 04:04:29;;;;;;;63.50;6.40;;;;;;;;;;5092249;28;21026;-74
2022/06/05 04:06:56;;;;;;;61.87;6.40;;;;;;;;;;5092297;28;20445;-73
2022/06/05 04:09:25;;;;;;;68.13;6.67;;;;;;;;;;5091442;28;20446;-75
2022/06/05 04:11:53;;;;;;;64.70;6.80;;;;;;;;;;5092093;28;20466;-73
2022/06/05 04:14:20;;;;;;;62.90;7.00;;;;;;;;;;5092266;28;20476;-73
2022/06/05 04:16:47;;;;;;;63.13;7.30;;;;;;;;;;5092541;28;20446;-72
2022/06/05 04:19:14;;;;;;;63.83;6.60;;;;;;;;;;5091883;28;20445;-73
2022/06/05 04:21:43;;;;;;;63.00;6.50;;;;;;;;;;5091951;28;20482;-72
2022/06/05 04:24:12;;;;;;;67.47;7.97;;;;;;;;;;5092045;28;20452;-72
2022/06/05 04:26:41;;;;;;;64.50;7.23;;;;;;;;;;5091948;28;20453;-71
2022/06/05 04:29:08;;;;;;;63.97;7.43;;;;;;;;;;5091519;28;20453;-71
2022/06/05 04:31:36;;;;;;;64.90;8.00;;;;;;;;;;5092032;28;20465;-72
2022/06/05 04:34:05;;;;;;;64.53;8.27;;;;;;;;;;5091878;28;20533;-72
2022/06/05 04:36:32;;;;;;;62.60;6.87;;;;;;;;;;5091982;28;20453;-73
2022/06/05 04:39:00;;;;;;;63.20;7.17;;;;;;;;;;5091202;28;20458;-71
2022/06/05 04:41:27;;;;;;;71.20;7.30;;;;;;;;;;5091699;28;20490;-72
2022/06/05 04:43:56;;;;;;;62.20;6.93;;;;;;;;;;5091713;28;20446;-71
2022/06/05 04:46:24;;;;;;;63.77;7.97;;;;;;;;;;5091785;28;20453;-72
2022/06/05 04:48:52;;;;;;;64.07;8.20;;;;;;;;;;5091096;28;20449;-72
2022/06/05 04:51:19;;;;;;;63.47;7.27;;;;;;;;;;5091793;28;20472;-72
2022/06/05 04:53:47;;;;;;;65.07;7.80;;;;;;;;;;5091762;28;20831;-72
2022/06/05 04:56:16;;;;;;;67.70;6.90;;;;;;;;;;5091904;28;20732;-71
2022/06/05 04:58:43;;;;;;;65.17;8.37;;;;;;;;;;5091110;28;20537;-72
2022/06/05 05:01:12;;;;;;;62.83;6.93;;;;;;;;;;5094544;28;21027;-72
2022/06/05 05:03:39;;;;;;;62.20;7.40;;;;;;;;;;5095766;28;20449;-72
2022/06/05 05:06:06;;;;;;;63.17;7.00;;;;;;;;;;5095689;28;20457;-72
2022/06/05 05:08:33;;;;;;;63.80;7.40;;;;;;;;;;5095151;28;20540;-72
2022/06/05 05:11:01;;;;;;;63.70;8.07;;;;;;;;;;5095830;28;20455;-71
2022/06/05 05:13:28;;;;;;;63.37;6.93;;;;;;;;;;5095708;28;20890;-72
2022/06/05 05:15:56;;;;;;;64.80;8.10;;;;;;;;;;5095615;28;20597;-71
2022/06/05 05:18:24;;;;;;;64.10;7.40;;;;;;;;;;5094747;28;20942;-71
2022/06/05 05:20:52;;;;;;;64.67;7.87;;;;;;;;;;5095120;28;20573;-72
2022/06/05 05:23:19;;;;;;;64.00;7.70;;;;;;;;;;5095242;28;20964;-72
2022/06/05 05:25:47;;;;;;;64.10;8.83;;;;;;;;;;5095603;28;20450;-71
2022/06/05 05:28:14;;;;;;;63.77;8.00;;;;;;;;;;5094679;28;20458;-71
2022/06/05 05:30:44;;;;;;;66.20;8.70;;;;;;;;;;5095379;28;20448;-71
2022/06/05 05:33:11;;;;;;;64.80;8.50;;;;;;;;;;5095179;28;20453;-72
2022/06/05 05:35:40;;;;;;;68.20;8.40;;;;;;;;;;5095411;28;20458;-71
2022/06/05 05:38:07;;;;;;;64.20;7.90;;;;;;;;;;5094365;28;20981;-72
2022/06/05 05:43:19;;;;;;;63.70;8.00;;;;;;;;;;5095040;28;20801;-71
2022/06/05 05:45:46;;;;;;;64.60;8.40;;;;;;;;;;5094927;28;20455;-72
2022/06/05 05:48:13;;;;;;;64.97;8.30;;;;;;;;;;5094533;28;20554;-71
2022/06/05 05:50:45;;;;;;;64.40;9.10;;;;;;;;;;5095065;28;20442;-72
2022/06/05 05:53:12;;;;;;;65.60;8.77;;;;;;;;;;5094736;28;20456;-71
2022/06/05 05:55:39;;;;;;;65.77;8.30;;;;;;;;;;5094791;28;20494;-72
2022/06/05 05:58:06;;;;;;;67.43;9.27;;;;;;;;;;5094123;28;20806;-72
2022/06/05 06:00:33;;;;;;;64.07;7.70;;;;;;;;;;5094562;28;20454;-72
2022/06/05 06:03:00;;;;;;;65.27;7.50;;;;;;;;;;5094738;28;20528;-72
2022/06/05 06:05:27;;;;;;;65.50;9.03;;;;;;;;;;5094634;28;20438;-72
2022/06/05 06:07:56;;;;;;;64.90;8.30;;;;;;;;;;5094002;28;20438;-73
2022/06/05 06:10:23;;;;;;;65.57;8.73;;;;;;;;;;5094089;28;20446;-72
2022/06/05 06:12:50;;;;;;;64.47;8.57;;;;;;;;;;5094176;28;20477;-72
2022/06/05 06:15:17;;;;;;;66.17;9.10;;;;;;;;;;5094653;28;20870;-72
2022/06/05 06:17:44;;;;;;;64.70;8.20;;;;;;;;;;5093655;28;21218;-72
2022/06/05 06:20:12;;;;;;;67.97;9.77;;;;;;;;;;5094487;28;20443;-73
2022/06/05 06:22:41;;;;;;;71.60;9.90;;;;;;;;;;5094119;28;20488;-72
2022/06/05 06:25:11;;;;;;;66.23;9.70;;;;;;;;;;5094233;28;20460;-72
2022/06/05 06:27:39;;;;;;;64.33;8.43;;;;;;;;;;5093443;28;20949;-72
2022/06/05 06:30:06;;;;;;;69.63;10.50;;;;;;;;;;5094286;28;20457;-72
2022/06/05 06:32:35;;;;;;;69.40;9.30;;;;;;;;;;5094075;28;20496;-72
2022/06/05 06:35:02;;;;;;;66.70;8.77;;;;;;;;;;5094050;28;20453;-73
2022/06/05 06:37:29;;;;;;;64.37;8.57;;;;;;;;;;5093250;28;20453;-73
2022/06/05 06:39:56;;;;;;;65.40;9.20;;;;;;;;;;5093843;28;20454;-72
2022/06/05 06:42:25;;;;;;;67.37;8.57;;;;;;;;;;5093884;28;20492;-73
2022/06/05 06:44:52;;;;;;;67.03;7.97;;;;;;;;;;5094015;28;20619;-72
2022/06/05 06:47:19;;;;;;;63.10;7.20;;;;;;;;;;5093362;28;20444;-72
2022/06/05 06:49:46;;;;;;;67.77;8.17;;;;;;;;;;5093802;28;20941;-72
2022/06/05 06:52:13;;;;;;;66.13;7.03;;;;;;;;;;5093588;28;21077;-72
2022/06/05 06:54:40;;;;;;;64.30;8.83;;;;;;;;;;5093542;28;20533;-72
2022/06/05 06:57:08;;;;;;;63.20;7.50;;;;;;;;;;5093491;28;20549;-73
2022/06/05 06:59:37;;;;;;;65.17;7.73;;;;;;;;;;5093578;28;20533;-72
2022/06/05 07:02:04;;;;;;;62.70;6.53;;;;;;;;;;5093495;28;20570;-72
2022/06/05 07:04:31;;;;;;;62.97;6.50;;;;;;;;;;5093469;28;20453;-72
2022/06/05 07:06:58;;;;;;;61.37;5.47;;;;;;;;;;5093313;28;20848;-72
2022/06/05 07:09:26;;;;;;;62.03;6.37;;;;;;;;;;5092927;28;21025;-72
2022/06/05 07:11:53;;;;;;;61.80;6.50;;;;;;;;;;5093392;28;20472;-72
2022/06/05 07:14:20;;;;;;;61.67;5.10;;;;;;;;;;5093366;28;20449;-72
2022/06/05 07:16:49;;;;;;;62.00;5.93;;;;;;;;;;5093203;28;20946;-72
2022/06/05 07:19:18;;;;;;;60.70;5.70;;;;;;;;;;5092556;28;20986;-72
2022/06/05 07:21:45;;;;;;;61.50;5.73;;;;;;;;;;5092797;28;20485;-72
2022/06/05 07:24:12;;;;;;;62.73;5.90;;;;;;;;;;5092350;28;20937;-72
2022/06/05 07:26:39;;;;;;;62.80;6.63;;;;;;;;;;5093181;28;20814;-72
2022/06/05 07:29:06;;;;;;;65.97;7.33;;;;;;;;;;5092320;28;20489;-72
2022/06/05 07:31:33;;;;;;;64.50;7.10;;;;;;;;;;5093321;28;20470;-72
2022/06/05 07:34:02;;;;;;;62.27;6.50;;;;;;;;;;5092778;28;20455;-73
2022/06/05 07:36:30;;;;;;;61.60;5.73;;;;;;;;;;5093043;28;20463;-73
2022/06/05 07:38:57;;;;;;;61.57;6.63;;;;;;;;;;5092015;28;20464;-73
2022/06/05 07:41:26;;;;;;;60.27;5.67;;;;;;;;;;5092758;28;20500;-72
2022/06/05 07:43:53;;;;;;;62.90;5.30;;;;;;;;;;5092855;28;20900;-73
2022/06/05 07:46:20;;;;;;;61.23;4.77;;;;;;;;;;5092749;28;20448;-73
2022/06/05 07:48:48;;;;;;;61.00;5.17;;;;;;;;;;5091833;28;20476;-73
2022/06/05 07:56:47;;;;;;;63.03;6.50;;;;;;;;;;5092551;28;20425;-74
2022/06/05 07:59:15;;;;;;;66.60;5.80;;;;;;;;;;5091915;28;20545;-72
2022/06/05 08:01:42;;;;;;;62.67;6.23;;;;;;;;;;5092486;28;20515;-73
2022/06/05 08:04:09;;;;;;;63.80;7.20;;;;;;;;;;5092242;28;20450;-73
2022/06/05 08:06:38;;;;;;;62.20;6.10;;;;;;;;;;5092518;28;20475;-73
2022/06/05 08:09:05;;;;;;;61.60;5.23;;;;;;;;;;5091659;28;20548;-73
2022/06/05 08:11:33;;;;;;;62.10;5.47;;;;;;;;;;5092085;28;20465;-73
2022/06/05 08:14:00;;;;;;;63.20;6.40;;;;;;;;;;5092395;28;20526;-73
2022/06/05 08:16:27;;;;;;;65.77;5.70;;;;;;;;;;5092423;28;20438;-73
2022/06/05 08:18:55;;;;;;;59.47;3.97;;;;;;;;;;5091721;28;20884;-72
2022/06/05 08:21:22;;;;;;;60.63;4.30;;;;;;;;;;5091923;28;20530;-74
2022/06/05 08:23:51;;;;;;;59.50;4.20;;;;;;;;;;5092016;28;20460;-73
2022/06/05 08:26:18;;;;;;;60.87;4.37;;;;;;;;;;5091934;28;20537;-73
2022/06/05 08:28:45;;;;;;;60.50;4.90;;;;;;;;;;5091617;28;20460;-72
2022/06/05 08:31:13;;;;;;;59.67;3.70;;;;;;;;;;5092039;28;20474;-72
2022/06/05 08:33:41;;;;;;;59.97;4.13;;;;;;;;;;5091845;28;20804;-72
2022/06/05 08:36:08;;;;;;;59.57;3.93;;;;;;;;;;5092137;28;20918;-73
2022/06/05 08:41:31;;;;;;;59.50;3.87;;;;;;;;;;5091845;28;20497;-72
2022/06/05 08:44:02;;;;;;;59.93;4.10;;;;;;;;;;5091936;28;20485;-72
2022/06/05 08:46:31;;;;;;;59.57;3.60;;;;;;;;;;5091952;28;20460;-72
2022/06/05 08:49:00;;;;;;;60.13;3.83;;;;;;;;;;5091078;28;20486;-72
2022/06/05 08:51:32;;;;;;;60.57;3.60;;;;;;;;;;5091696;28;20474;-72
2022/06/05 08:54:03;;;;;;;59.30;3.50;;;;;;;;;;5091688;28;20447;-72
2022/06/05 08:56:35;;;;;;;59.37;3.80;;;;;;;;;;5091732;28;20459;-72
2022/06/05 08:59:03;;;;;;;60.80;3.40;;;;;;;;;;5091076;28;20542;-71
2022/06/05 09:01:35;;;;;;;59.40;3.60;;;;;;;;;;5091618;28;21096;-71
2022/06/05 09:04:06;;;;;;;60.30;3.60;;;;;;;;;;5091865;28;20444;-71
2022/06/05 09:06:36;;;;;;;58.97;3.10;;;;;;;;;;5091795;28;20471;-72
2022/06/05 09:09:05;;;;;;;59.40;3.30;;;;;;;;;;5090863;28;20541;-72
2022/06/05 09:11:37;;;;;;;59.30;3.33;;;;;;;;;;5091505;28;21025;-72
2022/06/05 09:14:07;;;;;;;60.13;3.43;;;;;;;;;;5091503;28;20954;-72
2022/06/05 09:16:37;;;;;;;59.40;3.43;;;;;;;;;;5091752;28;20453;-72
2022/06/05 09:19:05;;;;;;;60.50;3.33;;;;;;;;;;5091071;28;20445;-72
2022/06/05 09:21:35;;;;;;;59.30;3.30;;;;;;;;;;5091352;28;20477;-72
2022/06/05 09:24:05;;;;;;;59.20;3.20;;;;;;;;;;5091443;28;20511;-73
2022/06/05 09:26:39;;;;;;;58.90;3.30;;;;;;;;;;5091503;28;20449;-73
2022/06/05 09:29:22;;;;;;;58.80;2.87;;;;;;;;;;5091167;28;20456;-73
2022/06/05 09:32:02;;;;;;;58.77;3.33;;;;;;;;;;5091510;28;20468;-72
2022/06/05 09:34:31;;;;;;;59.37;3.47;;;;;;;;;;5091406;28;20911;-74
2022/06/05 09:37:02;;;;;;;58.70;2.90;;;;;;;;;;5091154;28;20457;-72
2022/06/05 09:39:32;;;;;;;58.70;3.30;;;;;;;;;;5090767;28;20465;-72
2022/06/05 09:42:23;;;;;;;59.60;3.70;;;;;;;;;;5091156;28;20486;-73
2022/06/05 09:44:57;;;;;;;59.30;3.10;;;;;;;;;;5075904;28;21036;-73
2022/06/05 09:47:26;;;;;;;59.43;3.00;;;;;;;;;;5093707;28;20454;-72
2022/06/05 09:49:57;;;;;;;59.43;3.40;;;;;;;;;;5094903;28;20442;-72
2022/06/05 09:52:25;;;;;;;58.77;3.17;;;;;;;;;;5094974;28;20466;-72
2022/06/05 09:54:57;;;;;;;59.07;3.10;;;;;;;;;;5094763;28;21008;-73
2022/06/05 10:00:29;;;;;;;58.70;2.87;;;;;;;;;;5094869;28;20567;-74
2022/06/05 10:02:59;;;;;;;58.57;2.70;;;;;;;;;;5094621;28;20490;-72
2022/06/05 10:05:29;;;;;;;58.83;3.10;;;;;;;;;;5094945;28;20446;-73
2022/06/05 10:07:58;;;;;;;59.00;2.83;;;;;;;;;;5094256;28;20464;-73
2022/06/05 10:10:29;;;;;;;59.10;2.80;;;;;;;;;;5094406;28;20448;-73
2022/06/05 10:12:58;;;;;;;58.80;2.90;;;;;;;;;;5094382;28;20971;-73
2022/06/05 10:15:28;;;;;;;58.50;2.87;;;;;;;;;;5094564;28;20451;-73
2022/06/05 10:17:58;;;;;;;58.57;2.60;;;;;;;;;;5093856;28;20449;-74
2022/06/05 10:20:40;;;;;;;58.37;2.50;;;;;;;;;;5094284;28;20454;-72
2022/06/05 10:23:15;;;;;;;58.40;2.73;;;;;;;;;;5081452;28;20490;-72
2022/06/05 10:25:45;;;;;;;65.10;3.40;;;;;;;;;;5094268;28;20529;-71
2022/06/05 10:28:15;;;;;;;58.80;2.83;;;;;;;;;;5093703;28;20533;-71
2022/06/05 10:30:45;;;;;;;58.40;2.53;;;;;;;;;;5094236;28;20912;-72
2022/06/05 10:33:18;;;;;;;58.23;2.80;;;;;;;;;;5094284;28;20438;-73
2022/06/05 10:35:50;;;;;;;58.70;2.60;;;;;;;;;;5094185;28;20450;-72
2022/06/05 10:38:27;;;;;;;59.07;2.77;;;;;;;;;;5093233;28;20465;-73
2022/06/05 10:40:56;;;;;;;59.17;2.87;;;;;;;;;;5094148;28;20446;-73
2022/06/05 10:43:24;;;;;;;58.90;2.77;;;;;;;;;;5093803;28;20478;-72
2022/06/05 10:45:53;;;;;;;58.27;2.60;;;;;;;;;;5093865;28;20457;-73
2022/06/05 10:48:26;;;;;;;57.97;2.80;;;;;;;;;;5093166;28;20950;-73
2022/06/05 10:50:55;;;;;;;58.30;2.77;;;;;;;;;;5093860;28;20549;-73
2022/06/05 10:53:24;;;;;;;58.70;2.90;;;;;;;;;;5093729;28;20560;-73
2022/06/05 10:56:01;;;;;;;58.70;2.90;;;;;;;;;;5093775;28;20473;-73
2022/06/05 10:58:32;;;;;;;59.87;3.33;;;;;;;;;;5092960;28;20453;-73
2022/06/05 11:01:03;;;;;;;58.60;2.77;;;;;;;;;;5093827;28;20818;-73
2022/06/05 11:03:39;;;;;;;59.63;3.50;;;;;;;;;;5093695;28;20484;-73
2022/06/05 11:06:18;;;;;;;59.57;3.50;;;;;;;;;;5093611;28;20457;-73
2022/06/05 11:08:51;;;;;;;58.87;3.00;;;;;;;;;;5092776;28;20456;-72
2022/06/05 11:14:13;;;;;;;61.00;3.20;;;;;;;;;;5072034;28;20417;-72
2022/06/05 11:16:44;;;;;;;59.87;3.17;;;;;;;;;;5093370;28;20931;-73
2022/06/05 11:19:16;;;;;;;59.60;3.80;;;;;;;;;;5092526;28;20444;-73
2022/06/05 11:21:44;;;;;;;61.00;4.03;;;;;;;;;;5093091;28;20475;-72
2022/06/05 11:24:17;;;;;;;58.87;3.57;;;;;;;;;;5093072;28;20486;-73
2022/06/05 11:26:46;;;;;;;59.90;3.40;;;;;;;;;;5093115;28;20512;-74
2022/06/05 11:29:16;;;;;;;60.00;3.43;;;;;;;;;;5092458;28;20456;-73
2022/06/05 11:31:50;;;;;;;59.17;3.60;;;;;;;;;;5092895;28;20471;-73
2022/06/05 11:34:24;;;;;;;59.27;3.20;;;;;;;;;;5092995;28;20451;-73
2022/06/05 11:36:52;;;;;;;59.23;3.70;;;;;;;;;;5093007;28;20443;-73
2022/06/05 11:39:26;;;;;;;60.67;4.00;;;;;;;;;;5092148;28;20491;-72
2022/06/05 11:41:57;;;;;;;60.27;3.47;;;;;;;;;;5092667;28;20486;-73
2022/06/05 11:44:30;;;;;;;60.17;3.70;;;;;;;;;;5092839;28;20479;-72
2022/06/05 11:47:00;;;;;;;60.03;3.80;;;;;;;;;;5092821;28;20447;-71
2022/06/05 11:49:35;;;;;;;59.17;3.23;;;;;;;;;;5092096;28;20447;-72
2022/06/05 11:52:06;;;;;;;62.40;3.20;;;;;;;;;;5092642;28;20467;-72
2022/06/05 11:54:38;;;;;;;59.60;3.30;;;;;;;;;;5092474;28;20535;-72
2022/06/05 11:57:08;;;;;;;61.17;3.40;;;;;;;;;;5092407;28;20449;-72
2022/06/05 11:59:39;;;;;;;58.67;3.00;;;;;;;;;;5092452;28;20827;-73
2022/06/05 12:02:22;;;;;;;59.47;3.50;;;;;;;;;;5092490;28;20472;-72
2022/06/05 12:04:53;;;;;;;59.40;3.53;;;;;;;;;;5092281;28;20453;-72
2022/06/05 12:07:21;;;;;;;61.00;4.13;;;;;;;;;;5091935;28;20530;-72
2022/06/05 12:09:49;;;;;;;59.40;3.30;;;;;;;;;;5092025;28;20533;-72
2022/06/05 12:12:21;;;;;;;59.30;3.00;;;;;;;;;;5092291;28;20463;-73
2022/06/05 12:14:50;;;;;;;59.20;3.40;;;;;;;;;;5092372;28;20446;-73
2022/06/05 12:17:19;;;;;;;62.30;3.70;;;;;;;;;;5091492;28;20549;-72
2022/06/05 12:19:51;;;;;;;58.97;2.70;;;;;;;;;;5092049;28;20533;-73
2022/06/05 12:22:23;;;;;;;58.77;2.90;;;;;;;;;;5091906;28;20465;-73
2022/06/05 12:24:52;;;;;;;59.80;3.07;;;;;;;;;;5092196;28;20465;-75
2022/06/05 12:27:20;;;;;;;59.47;3.40;;;;;;;;;;5091488;28;20446;-72
2022/06/05 12:29:53;;;;;;;58.97;3.10;;;;;;;;;;5091977;28;20488;-71
2022/06/05 12:32:26;;;;;;;58.43;2.40;;;;;;;;;;5092157;28;20509;-72
2022/06/05 12:34:58;;;;;;;60.30;2.63;;;;;;;;;;5091893;28;20946;-73
2022/06/05 12:37:28;;;;;;;58.47;2.70;;;;;;;;;;5091410;28;20468;-73
2022/06/05 12:39:57;;;;;;;58.50;2.53;;;;;;;;;;5092033;28;20530;-73
2022/06/05 12:42:31;;;;;;;58.80;2.53;;;;;;;;;;5091545;28;21074;-73
2022/06/05 12:45:00;;;;;;;59.10;2.90;;;;;;;;;;5092117;28;20451;-74
2022/06/05 12:47:41;;;;;;;58.07;2.17;;;;;;;;;;5091483;28;20501;-72
2022/06/05 12:50:21;;;;;;;58.70;2.50;;;;;;;;;;5091977;28;20533;-72
2022/06/05 12:52:52;;;;;;;58.60;2.50;;;;;;;;;;5091568;28;20554;-73
2022/06/05 12:55:22;;;;;;;60.20;2.70;;;;;;;;;;5092319;28;20473;-73
2022/06/05 12:57:57;;;;;;;58.57;2.40;;;;;;;;;;5091299;28;20455;-71
2022/06/05 13:00:31;;;;;;;60.40;2.83;;;;;;;;;;5091828;28;20814;-73
2022/06/05 13:03:00;;;;;;;58.00;2.30;;;;;;;;;;5091583;28;20490;-73
2022/06/05 13:05:32;;;;;;;57.90;2.30;;;;;;;;;;5091660;28;20442;-74
2022/06/05 13:08:03;;;;;;;58.90;2.70;;;;;;;;;;5091216;28;20459;-74
2022/06/05 13:10:33;;;;;;;58.33;2.37;;;;;;;;;;5091885;28;20533;-73
2022/06/05 13:13:06;;;;;;;58.70;2.77;;;;;;;;;;5091522;28;20997;-73
2022/06/05 13:15:36;;;;;;;58.60;2.40;;;;;;;;;;5091681;28;20450;-74
2022/06/05 13:18:06;;;;;;;60.17;2.60;;;;;;;;;;5090812;28;20488;-73
2022/06/05 13:20:36;;;;;;;60.20;3.70;;;;;;;;;;5091939;28;20541;-73
2022/06/05 13:23:08;;;;;;;58.50;2.40;;;;;;;;;;5095383;28;20554;-70
2022/06/05 13:25:44;;;;;;;59.50;2.77;;;;;;;;;;5095595;28;20792;-71
2022/06/05 13:28:15;;;;;;;59.27;2.53;;;;;;;;;;5094646;28;20490;-72
2022/06/05 13:30:47;;;;;;;59.00;2.63;;;;;;;;;;5095613;28;20953;-72
2022/06/05 13:33:16;;;;;;;58.13;2.20;;;;;;;;;;5095226;28;20541;-73
2022/06/05 13:35:46;;;;;;;58.70;2.17;;;;;;;;;;5095158;28;20447;-74
2022/06/05 13:38:17;;;;;;;58.70;2.53;;;;;;;;;;5094448;28;20458;-72
2022/06/05 13:40:48;;;;;;;59.53;2.60;;;;;;;;;;5095025;28;20888;-72
2022/06/05 13:43:20;;;;;;;57.73;2.13;;;;;;;;;;5095189;28;20497;-72
2022/06/05 13:45:54;;;;;;;58.80;2.70;;;;;;;;;;5095229;28;20831;-73
2022/06/05 13:48:24;;;;;;;58.30;2.40;;;;;;;;;;5094470;28;20481;-72
2022/06/05 13:50:54;;;;;;;61.67;2.67;;;;;;;;;;5094907;28;20456;-73
2022/06/05 13:53:25;;;;;;;60.20;2.60;;;;;;;;;;5094831;28;20450;-73
2022/06/05 13:55:57;;;;;;;59.47;2.90;;;;;;;;;;5094882;28;21004;-74
2022/06/05 13:58:27;;;;;;;58.50;2.47;;;;;;;;;;5094141;28;20539;-73
2022/06/05 14:00:56;;;;;;;58.10;2.40;;;;;;;;;;5094774;28;20443;-73
2022/06/05 14:03:35;;;;;;;58.77;2.93;;;;;;;;;;5094612;28;20488;-73
2022/06/05 14:06:03;;;;;;;58.57;2.80;;;;;;;;;;5094655;28;20457;-73
2022/06/05 14:08:36;;;;;;;58.77;2.60;;;;;;;;;;5094117;28;20536;-73
2022/06/05 14:11:04;;;;;;;58.70;2.40;;;;;;;;;;5094212;28;20444;-73
2022/06/05 14:13:40;;;;;;;58.47;2.33;;;;;;;;;;5094574;28;20435;-73
2022/06/05 14:16:07;;;;;;;58.50;2.50;;;;;;;;;;5094320;28;20909;-74
2022/06/05 14:18:40;;;;;;;58.80;2.63;;;;;;;;;;5093952;28;20450;-73
2022/06/05 14:21:08;;;;;;;57.87;2.57;;;;;;;;;;5094548;28;20488;-73
2022/06/05 14:23:36;;;;;;;60.50;3.27;;;;;;;;;;5094250;28;20489;-74
2022/06/05 14:26:05;;;;;;;61.17;3.50;;;;;;;;;;5094303;28;20452;-73
2022/06/05 14:28:37;;;;;;;59.97;3.20;;;;;;;;;;5094011;28;20841;-75
2022/06/05 14:31:09;;;;;;;59.50;2.90;;;;;;;;;;5094271;28;20455;-73
2022/06/05 14:33:39;;;;;;;60.00;3.00;;;;;;;;;;5094127;28;20534;-72
2022/06/05 14:36:07;;;;;;;60.50;3.03;;;;;;;;;;5094062;28;21000;-72
2022/06/05 14:38:37;;;;;;;62.50;2.80;;;;;;;;;;5093209;28;21043;-72
2022/06/05 14:41:10;;;;;;;58.67;3.00;;;;;;;;;;5093902;28;20442;-73
2022/06/05 14:43:42;;;;;;;58.57;2.53;;;;;;;;;;5093985;28;20543;-72
2022/06/05 14:46:21;;;;;;;59.60;3.10;;;;;;;;;;5093962;28;20454;-72
2022/06/05 14:48:50;;;;;;;60.37;2.90;;;;;;;;;;5093297;28;20457;-72
2022/06/05 14:51:20;;;;;;;62.60;3.93;;;;;;;;;;5093727;28;20873;-73
2022/06/05 14:53:52;;;;;;;58.87;2.70;;;;;;;;;;5093564;28;20446;-73
2022/06/05 14:59:14;;;;;;;58.77;2.63;;;;;;;;;;5093050;28;20422;-72
2022/06/05 15:01:43;;;;;;;59.93;2.90;;;;;;;;;;5093606;28;20843;-72
2022/06/05 15:04:15;;;;;;;58.73;3.10;;;;;;;;;;5093335;28;20854;-73
2022/06/05 15:06:45;;;;;;;58.53;2.40;;;;;;;;;;5093763;28;20489;-73
2022/06/05 15:09:15;;;;;;;58.90;2.80;;;;;;;;;;5092913;28;20442;-73